sensor_id;sensor_type;location;lat;lon;timestamp;pressure;altitude;pressure_sealevel;temperature;humidity
69187;BME280;56301;56.864;60.554;2023-04-25T00:00:36;98918.69;;;24.51;37.81
69187;BME280;56301;56.864;60.554;2023-04-25T00:02:59;98923.06;;;24.52;37.16
69187;BME280;56301;56.864;60.554;2023-04-25T00:05:22;98925.78;;;24.52;37.42
69187;BME280;56301;56.864;60.554;2023-04-25T00:07:45;98923.25;;;24.50;37.41
69187;BME280;56301;56.864;60.554;2023-04-25T00:10:07;98926.81;;;24.51;37.60
69187;BME280;56301;56.864;60.554;2023-04-25T00:12:30;98927.66;;;24.52;37.61
69187;BME280;56301;56.864;60.554;2023-04-25T00:14:52;98926.81;;;24.51;37.43
69187;BME280;56301;56.864;60.554;2023-04-25T00:17:15;98930.34;;;24.52;37.90
69187;BME280;56301;56.864;60.554;2023-04-25T00:19:38;98930.16;;;24.53;37.12
69187;BME280;56301;56.864;60.554;2023-04-25T00:22:00;98925.09;;;24.50;37.23
69187;BME280;56301;56.864;60.554;2023-04-25T00:24:23;98921.41;;;24.51;37.26
69187;BME280;56301;56.864;60.554;2023-04-25T00:26:45;98931.34;;;24.50;37.42
69187;BME280;56301;56.864;60.554;2023-04-25T00:29:08;98934.25;;;24.49;37.47
69187;BME280;56301;56.864;60.554;2023-04-25T00:31:30;98940.69;;;24.48;37.62
69187;BME280;56301;56.864;60.554;2023-04-25T00:33:53;98936.97;;;24.49;37.59
69187;BME280;56301;56.864;60.554;2023-04-25T00:36:15;98926.13;;;24.49;37.61
69187;BME280;56301;56.864;60.554;2023-04-25T00:38:38;98933.41;;;24.48;36.78
69187;BME280;56301;56.864;60.554;2023-04-25T00:41:00;98933.41;;;24.48;37.22
69187;BME280;56301;56.864;60.554;2023-04-25T00:43:25;98940.69;;;24.48;36.87
69187;BME280;56301;56.864;60.554;2023-04-25T00:45:47;98944.22;;;24.48;37.27
69187;BME280;56301;56.864;60.554;2023-04-25T00:48:10;98947.09;;;24.47;37.32
69187;BME280;56301;56.864;60.554;2023-04-25T00:50:33;98947.97;;;24.47;37.21
69187;BME280;56301;56.864;60.554;2023-04-25T00:52:56;98951.50;;;24.48;36.68
69187;BME280;56301;56.864;60.554;2023-04-25T00:55:19;98946.25;;;24.46;36.88
69187;BME280;56301;56.864;60.554;2023-04-25T00:57:42;98950.66;;;24.47;37.21
69187;BME280;56301;56.864;60.554;2023-04-25T01:00:05;98955.06;;;24.48;37.24
69187;BME280;56301;56.864;60.554;2023-04-25T01:02:28;98948.81;;;24.48;36.94
69187;BME280;56301;56.864;60.554;2023-04-25T01:04:51;98948.13;;;24.46;37.43
69187;BME280;56301;56.864;60.554;2023-04-25T01:07:13;98954.56;;;24.45;37.94
69187;BME280;56301;56.864;60.554;2023-04-25T01:09:36;98950.19;;;24.44;37.89
69187;BME280;56301;56.864;60.554;2023-04-25T01:11:58;98951.19;;;24.43;37.55
69187;BME280;56301;56.864;60.554;2023-04-25T01:14:21;98951.66;;;24.46;37.00
69187;BME280;56301;56.864;60.554;2023-04-25T01:16:43;98951.84;;;24.45;36.49
69187;BME280;56301;56.864;60.554;2023-04-25T01:19:09;98953.53;;;24.46;37.83
69187;BME280;56301;56.864;60.554;2023-04-25T01:21:32;98957.25;;;24.45;36.67
69187;BME280;56301;56.864;60.554;2023-04-25T01:23:55;98961.66;;;24.46;37.25
69187;BME280;56301;56.864;60.554;2023-04-25T01:26:18;98969.94;;;24.44;37.54
69187;BME280;56301;56.864;60.554;2023-04-25T01:28:40;98963.50;;;24.45;37.60
69187;BME280;56301;56.864;60.554;2023-04-25T01:31:03;98967.25;;;24.44;37.77
69187;BME280;56301;56.864;60.554;2023-04-25T01:33:26;98971.81;;;24.44;37.54
69187;BME280;56301;56.864;60.554;2023-04-25T01:35:49;98977.88;;;24.46;37.22
69187;BME280;56301;56.864;60.554;2023-04-25T01:38:12;98970.78;;;24.45;37.68
69187;BME280;56301;56.864;60.554;2023-04-25T01:40:34;98969.75;;;24.46;36.98
69187;BME280;56301;56.864;60.554;2023-04-25T01:42:59;98972.47;;;24.46;37.42
69187;BME280;56301;56.864;60.554;2023-04-25T01:45:21;98976.00;;;24.46;37.33
69187;BME280;56301;56.864;60.554;2023-04-25T01:47:44;98975.00;;;24.47;37.27
69187;BME280;56301;56.864;60.554;2023-04-25T01:50:07;98968.72;;;24.47;37.63
69187;BME280;56301;56.864;60.554;2023-04-25T01:52:31;98976.84;;;24.47;37.39
69187;BME280;56301;56.864;60.554;2023-04-25T01:54:54;98974.13;;;24.47;37.63
69187;BME280;56301;56.864;60.554;2023-04-25T01:57:17;98971.44;;;24.47;37.61
69187;BME280;56301;56.864;60.554;2023-04-25T01:59:41;98984.81;;;24.48;37.70
69187;BME280;56301;56.864;60.554;2023-04-25T02:02:32;98986.47;;;24.49;37.29
69187;BME280;56301;56.864;60.554;2023-04-25T02:04:55;98976.50;;;24.50;37.14
69187;BME280;56301;56.864;60.554;2023-04-25T02:07:20;98987.31;;;24.50;37.77
69187;BME280;56301;56.864;60.554;2023-04-25T02:09:46;98992.72;;;24.50;37.81
69187;BME280;56301;56.864;60.554;2023-04-25T02:12:09;98998.13;;;24.50;37.14
69187;BME280;56301;56.864;60.554;2023-04-25T02:14:50;98999.84;;;24.51;37.67
69187;BME280;56301;56.864;60.554;2023-04-25T02:17:21;99007.97;;;24.51;37.71
69187;BME280;56301;56.864;60.554;2023-04-25T02:19:43;99005.25;;;24.51;37.50
69187;BME280;56301;56.864;60.554;2023-04-25T02:22:06;99008.63;;;24.53;37.60
69187;BME280;56301;56.864;60.554;2023-04-25T02:24:28;99011.31;;;24.53;37.67
69187;BME280;56301;56.864;60.554;2023-04-25T02:26:52;99011.31;;;24.53;37.11
69187;BME280;56301;56.864;60.554;2023-04-25T02:29:14;99022.13;;;24.53;37.80
69187;BME280;56301;56.864;60.554;2023-04-25T02:31:37;99015.06;;;24.52;37.86
69187;BME280;56301;56.864;60.554;2023-04-25T02:34:00;99014.22;;;24.52;37.62
69187;BME280;56301;56.864;60.554;2023-04-25T02:36:23;99015.88;;;24.53;37.96
69187;BME280;56301;56.864;60.554;2023-04-25T02:38:46;99024.00;;;24.53;38.19
69187;BME280;56301;56.864;60.554;2023-04-25T02:41:08;99022.97;;;24.54;37.59
69187;BME280;56301;56.864;60.554;2023-04-25T02:43:30;99028.56;;;24.52;37.54
69187;BME280;56301;56.864;60.554;2023-04-25T02:45:53;99027.53;;;24.53;37.65
69187;BME280;56301;56.864;60.554;2023-04-25T02:48:16;99023.16;;;24.52;37.36
69187;BME280;56301;56.864;60.554;2023-04-25T02:50:38;99020.47;;;24.52;37.77
69187;BME280;56301;56.864;60.554;2023-04-25T02:53:01;99026.72;;;24.53;37.20
69187;BME280;56301;56.864;60.554;2023-04-25T02:55:29;99036.50;;;24.54;37.57
69187;BME280;56301;56.864;60.554;2023-04-25T02:57:53;99032.97;;;24.53;37.24
69187;BME280;56301;56.864;60.554;2023-04-25T03:00:27;99032.13;;;24.53;37.17
69187;BME280;56301;56.864;60.554;2023-04-25T03:02:50;99031.28;;;24.52;37.74
69187;BME280;56301;56.864;60.554;2023-04-25T03:05:12;99038.38;;;24.53;37.52
69187;BME280;56301;56.864;60.554;2023-04-25T03:07:35;99032.97;;;24.53;37.35
69187;BME280;56301;56.864;60.554;2023-04-25T03:09:59;99035.47;;;24.55;36.96
69187;BME280;56301;56.864;60.554;2023-04-25T03:12:21;99030.94;;;24.55;37.30
69187;BME280;56301;56.864;60.554;2023-04-25T03:14:43;99034.63;;;24.54;37.15
69187;BME280;56301;56.864;60.554;2023-04-25T03:17:06;99036.34;;;24.55;37.46
69187;BME280;56301;56.864;60.554;2023-04-25T03:19:31;99030.06;;;24.55;37.06
69187;BME280;56301;56.864;60.554;2023-04-25T03:21:53;99033.63;;;24.55;37.76
69187;BME280;56301;56.864;60.554;2023-04-25T03:24:16;99035.31;;;24.56;37.53
69187;BME280;56301;56.864;60.554;2023-04-25T03:26:38;99043.25;;;24.58;37.65
69187;BME280;56301;56.864;60.554;2023-04-25T03:29:01;99039.69;;;24.57;38.37
69187;BME280;56301;56.864;60.554;2023-04-25T03:31:24;99039.69;;;24.57;37.58
69187;BME280;56301;56.864;60.554;2023-04-25T03:33:47;99034.13;;;24.59;37.29
69187;BME280;56301;56.864;60.554;2023-04-25T03:36:09;99045.94;;;24.58;37.42
69187;BME280;56301;56.864;60.554;2023-04-25T03:38:32;99040.88;;;24.63;37.41
69187;BME280;56301;56.864;60.554;2023-04-25T03:40:55;99042.41;;;24.57;36.06
69187;BME280;56301;56.864;60.554;2023-04-25T03:43:29;99043.28;;;24.49;36.51
69187;BME280;56301;56.864;60.554;2023-04-25T03:45:58;99044.47;;;24.47;36.13
69187;BME280;56301;56.864;60.554;2023-04-25T03:48:21;99042.28;;;24.42;36.09
69187;BME280;56301;56.864;60.554;2023-04-25T03:50:44;99044.66;;;24.45;36.20
69187;BME280;56301;56.864;60.554;2023-04-25T03:53:06;99041.25;;;24.52;36.82
69187;BME280;56301;56.864;60.554;2023-04-25T03:55:46;99039.19;;;24.54;36.86
69187;BME280;56301;56.864;60.554;2023-04-25T03:58:09;99045.44;;;24.54;36.25
69187;BME280;56301;56.864;60.554;2023-04-25T04:00:33;99044.63;;;24.54;36.20
69187;BME280;56301;56.864;60.554;2023-04-25T04:02:56;99046.19;;;24.48;35.74
69187;BME280;56301;56.864;60.554;2023-04-25T04:05:18;99042.97;;;24.44;35.50
69187;BME280;56301;56.864;60.554;2023-04-25T04:07:47;99042.28;;;24.42;35.30
69187;BME280;56301;56.864;60.554;2023-04-25T04:10:12;99044.34;;;24.40;34.97
69187;BME280;56301;56.864;60.554;2023-04-25T04:12:36;99052.47;;;24.40;35.06
69187;BME280;56301;56.864;60.554;2023-04-25T04:14:58;99048.88;;;24.40;35.63
69187;BME280;56301;56.864;60.554;2023-04-25T04:17:21;99046.88;;;24.42;34.80
69187;BME280;56301;56.864;60.554;2023-04-25T04:19:44;99053.97;;;24.43;34.62
69187;BME280;56301;56.864;60.554;2023-04-25T04:22:11;99057.34;;;24.45;34.97
69187;BME280;56301;56.864;60.554;2023-04-25T04:24:35;99053.59;;;24.46;34.54
69187;BME280;56301;56.864;60.554;2023-04-25T04:27:01;99057.00;;;24.48;34.78
69187;BME280;56301;56.864;60.554;2023-04-25T04:29:36;99054.94;;;24.50;34.33
69187;BME280;56301;56.864;60.554;2023-04-25T04:32:11;99052.91;;;24.52;34.09
69187;BME280;56301;56.864;60.554;2023-04-25T04:34:34;99053.56;;;24.54;34.67
69187;BME280;56301;56.864;60.554;2023-04-25T04:36:57;99049.69;;;24.57;34.88
69187;BME280;56301;56.864;60.554;2023-04-25T04:39:21;99060.16;;;24.60;34.76
69187;BME280;56301;56.864;60.554;2023-04-25T04:41:55;99051.84;;;24.61;34.70
69187;BME280;56301;56.864;60.554;2023-04-25T04:44:47;99053.38;;;24.64;34.89
69187;BME280;56301;56.864;60.554;2023-04-25T04:47:20;99051.16;;;24.67;34.62
69187;BME280;56301;56.864;60.554;2023-04-25T04:49:59;99054.53;;;24.69;35.19
69187;BME280;56301;56.864;60.554;2023-04-25T04:52:45;99042.50;;;24.72;35.26
69187;BME280;56301;56.864;60.554;2023-04-25T04:55:34;99050.09;;;24.77;35.40
69187;BME280;56301;56.864;60.554;2023-04-25T04:58:28;99042.63;;;24.79;34.84
69187;BME280;56301;56.864;60.554;2023-04-25T05:01:15;99050.22;;;24.83;35.14
69187;BME280;56301;56.864;60.554;2023-04-25T05:03:56;99056.13;;;24.87;34.79
69187;BME280;56301;56.864;60.554;2023-04-25T05:06:39;99052.91;;;24.91;35.26
69187;BME280;56301;56.864;60.554;2023-04-25T05:09:19;99055.22;;;24.94;34.65
69187;BME280;56301;56.864;60.554;2023-04-25T05:11:57;99053.00;;;24.98;34.79
69187;BME280;56301;56.864;60.554;2023-04-25T05:14:35;99049.78;;;25.03;34.88
69187;BME280;56301;56.864;60.554;2023-04-25T05:20:20;99050.75;;;25.10;33.95
69187;BME280;56301;56.864;60.554;2023-04-25T05:23:12;99045.84;;;25.13;34.58
69187;BME280;56301;56.864;60.554;2023-04-25T05:25:57;99047.19;;;25.17;34.44
69187;BME280;56301;56.864;60.554;2023-04-25T05:28:40;99037.53;;;25.15;34.36
69187;BME280;56301;56.864;60.554;2023-04-25T05:31:21;99047.31;;;25.24;34.50
69187;BME280;56301;56.864;60.554;2023-04-25T05:33:52;99046.94;;;25.27;34.10
69187;BME280;56301;56.864;60.554;2023-04-25T05:36:17;99048.63;;;25.28;33.58
69187;BME280;56301;56.864;60.554;2023-04-25T05:38:40;99045.72;;;25.30;34.06
69187;BME280;56301;56.864;60.554;2023-04-25T05:41:18;99041.63;;;25.34;34.38
69187;BME280;56301;56.864;60.554;2023-04-25T05:43:50;99037.38;;;25.39;34.28
69187;BME280;56301;56.864;60.554;2023-04-25T05:46:35;99031.75;;;25.41;33.87
69187;BME280;56301;56.864;60.554;2023-04-25T05:49:13;99042.72;;;25.48;33.33
69187;BME280;56301;56.864;60.554;2023-04-25T05:51:54;99042.00;;;25.54;33.64
69187;BME280;56301;56.864;60.554;2023-04-25T05:54:29;99038.72;;;25.58;33.66
69187;BME280;56301;56.864;60.554;2023-04-25T05:56:52;99041.56;;;25.65;33.13
69187;BME280;56301;56.864;60.554;2023-04-25T05:59:15;99036.63;;;25.68;33.11
69187;BME280;56301;56.864;60.554;2023-04-25T06:01:37;99046.06;;;25.73;32.74
69187;BME280;56301;56.864;60.554;2023-04-25T06:04:01;99039.44;;;25.75;33.21
69187;BME280;56301;56.864;60.554;2023-04-25T06:06:24;99033.19;;;25.75;32.92
69187;BME280;56301;56.864;60.554;2023-04-25T06:08:46;99033.19;;;25.75;33.11
69187;BME280;56301;56.864;60.554;2023-04-25T06:11:09;99037.56;;;25.76;32.73
69187;BME280;56301;56.864;60.554;2023-04-25T06:13:31;99032.78;;;25.78;33.25
69187;BME280;56301;56.864;60.554;2023-04-25T06:15:54;99035.38;;;25.79;32.97
69187;BME280;56301;56.864;60.554;2023-04-25T06:18:16;99027.03;;;25.81;32.78
69187;BME280;56301;56.864;60.554;2023-04-25T06:20:39;99031.44;;;25.82;32.98
69187;BME280;56301;56.864;60.554;2023-04-25T06:23:02;99032.09;;;25.84;33.01
69187;BME280;56301;56.864;60.554;2023-04-25T06:25:36;99039.19;;;25.85;33.52
69187;BME280;56301;56.864;60.554;2023-04-25T06:27:59;99026.31;;;25.87;32.87
69187;BME280;56301;56.864;60.554;2023-04-25T06:30:21;99032.56;;;25.87;33.09
69187;BME280;56301;56.864;60.554;2023-04-25T06:32:46;99020.88;;;25.87;32.75
69187;BME280;56301;56.864;60.554;2023-04-25T06:35:08;99026.31;;;25.87;32.61
69187;BME280;56301;56.864;60.554;2023-04-25T06:37:31;99025.28;;;25.88;32.63
69187;BME280;56301;56.864;60.554;2023-04-25T06:39:53;99028.81;;;25.88;32.28
69187;BME280;56301;56.864;60.554;2023-04-25T06:42:16;99033.03;;;25.91;32.09
69187;BME280;56301;56.864;60.554;2023-04-25T06:44:47;99026.03;;;25.97;32.60
69187;BME280;56301;56.864;60.554;2023-04-25T06:47:10;99021.72;;;26.02;32.00
69187;BME280;56301;56.864;60.554;2023-04-25T06:49:32;99018.66;;;26.05;32.57
69187;BME280;56301;56.864;60.554;2023-04-25T06:51:55;99022.69;;;26.09;32.12
69187;BME280;56301;56.864;60.554;2023-04-25T06:54:18;99019.78;;;26.11;32.25
69187;BME280;56301;56.864;60.554;2023-04-25T06:56:50;99020.91;;;26.16;31.87
69187;BME280;56301;56.864;60.554;2023-04-25T06:59:13;99018.44;;;26.22;33.19
69187;BME280;56301;56.864;60.554;2023-04-25T07:01:37;99029.97;;;26.24;32.33
69187;BME280;56301;56.864;60.554;2023-04-25T07:04:03;99012.28;;;26.28;31.88
69187;BME280;56301;56.864;60.554;2023-04-25T07:06:28;99014.63;;;26.31;33.11
69187;BME280;56301;56.864;60.554;2023-04-25T07:08:51;99009.88;;;26.33;31.63
69187;BME280;56301;56.864;60.554;2023-04-25T07:11:13;99011.19;;;26.37;32.58
69187;BME280;56301;56.864;60.554;2023-04-25T07:13:36;99014.53;;;26.39;32.24
69187;BME280;56301;56.864;60.554;2023-04-25T07:15:59;99014.16;;;26.42;32.23
69187;BME280;56301;56.864;60.554;2023-04-25T07:18:23;99009.38;;;26.44;32.07
69187;BME280;56301;56.864;60.554;2023-04-25T07:20:47;99008.34;;;26.45;32.40
69187;BME280;56301;56.864;60.554;2023-04-25T07:23:10;99004.47;;;26.48;31.81
69187;BME280;56301;56.864;60.554;2023-04-25T07:25:32;99000.50;;;26.50;32.58
69187;BME280;56301;56.864;60.554;2023-04-25T07:27:56;98998.84;;;26.49;32.16
69187;BME280;56301;56.864;60.554;2023-04-25T07:30:18;98997.63;;;26.52;32.46
69187;BME280;56301;56.864;60.554;2023-04-25T07:32:41;99009.94;;;26.54;31.99
69187;BME280;56301;56.864;60.554;2023-04-25T07:35:03;98999.75;;;26.56;32.17
69187;BME280;56301;56.864;60.554;2023-04-25T07:37:26;98998.91;;;26.56;32.19
69187;BME280;56301;56.864;60.554;2023-04-25T07:39:57;98993.28;;;26.57;32.24
69187;BME280;56301;56.864;60.554;2023-04-25T07:42:20;98985.97;;;26.58;32.10
69187;BME280;56301;56.864;60.554;2023-04-25T07:44:44;98996.47;;;26.61;32.28
69187;BME280;56301;56.864;60.554;2023-04-25T07:47:09;98985.97;;;26.58;31.63
69187;BME280;56301;56.864;60.554;2023-04-25T07:49:35;98983.28;;;26.58;32.31
69187;BME280;56301;56.864;60.554;2023-04-25T07:51:59;98981.69;;;26.63;32.29
69187;BME280;56301;56.864;60.554;2023-04-25T07:54:22;98986.28;;;26.63;32.68
69187;BME280;56301;56.864;60.554;2023-04-25T07:56:52;98983.56;;;26.63;31.78
69187;BME280;56301;56.864;60.554;2023-04-25T07:59:15;98986.91;;;26.65;31.35
69187;BME280;56301;56.864;60.554;2023-04-25T08:01:38;98983.72;;;26.61;31.98
69187;BME280;56301;56.864;60.554;2023-04-25T08:04:02;98982.50;;;26.64;32.27
69187;BME280;56301;56.864;60.554;2023-04-25T08:06:45;98973.78;;;26.69;32.14
69187;BME280;56301;56.864;60.554;2023-04-25T08:09:16;98975.03;;;26.66;32.62
69187;BME280;56301;56.864;60.554;2023-04-25T08:11:39;98974.47;;;26.71;32.21
69187;BME280;56301;56.864;60.554;2023-04-25T08:14:04;98982.81;;;26.69;32.15
69187;BME280;56301;56.864;60.554;2023-04-25T08:16:28;98987.38;;;26.69;32.14
69187;BME280;56301;56.864;60.554;2023-04-25T08:18:51;98986.34;;;26.70;32.38
69187;BME280;56301;56.864;60.554;2023-04-25T08:21:14;98971.94;;;26.69;31.81
69187;BME280;56301;56.864;60.554;2023-04-25T08:23:37;98975.50;;;26.70;32.40
69187;BME280;56301;56.864;60.554;2023-04-25T08:26:06;98960.50;;;26.74;32.27
69187;BME280;56301;56.864;60.554;2023-04-25T08:28:31;98968.66;;;26.74;31.41
69187;BME280;56301;56.864;60.554;2023-04-25T08:30:56;98968.66;;;26.74;32.33
69187;BME280;56301;56.864;60.554;2023-04-25T08:33:18;98968.44;;;26.75;32.34
69187;BME280;56301;56.864;60.554;2023-04-25T08:36:04;98970.31;;;26.75;31.41
69187;BME280;56301;56.864;60.554;2023-04-25T08:38:28;98975.38;;;26.78;31.99
69187;BME280;56301;56.864;60.554;2023-04-25T08:40:50;98951.97;;;26.77;31.49
69187;BME280;56301;56.864;60.554;2023-04-25T08:43:13;98960.75;;;26.79;31.74
69187;BME280;56301;56.864;60.554;2023-04-25T08:45:39;98967.88;;;26.80;31.99
69187;BME280;56301;56.864;60.554;2023-04-25T08:48:02;98961.59;;;26.79;32.27
69187;BME280;56301;56.864;60.554;2023-04-25T08:50:25;98974.78;;;26.82;31.96
69187;BME280;56301;56.864;60.554;2023-04-25T08:52:48;98974.78;;;26.82;31.81
69187;BME280;56301;56.864;60.554;2023-04-25T08:55:12;98971.22;;;26.82;32.08
69187;BME280;56301;56.864;60.554;2023-04-25T08:57:35;98971.91;;;26.84;31.33
69187;BME280;56301;56.864;60.554;2023-04-25T08:59:58;98972.53;;;26.86;32.16
69187;BME280;56301;56.864;60.554;2023-04-25T09:02:21;98973.38;;;26.86;31.58
69187;BME280;56301;56.864;60.554;2023-04-25T09:04:45;98975.25;;;26.86;32.38
69187;BME280;56301;56.864;60.554;2023-04-25T09:07:08;98979.63;;;26.87;31.46
69187;BME280;56301;56.864;60.554;2023-04-25T09:09:31;98975.91;;;26.88;31.51
69187;BME280;56301;56.864;60.554;2023-04-25T09:11:54;98976.53;;;26.90;32.09
69187;BME280;56301;56.864;60.554;2023-04-25T09:14:17;98972.97;;;26.89;32.33
69187;BME280;56301;56.864;60.554;2023-04-25T09:16:59;98970.28;;;26.89;31.40
69187;BME280;56301;56.864;60.554;2023-04-25T09:19:37;98970.09;;;26.91;31.70
69187;BME280;56301;56.864;60.554;2023-04-25T09:22:00;98980.97;;;26.91;31.40
69187;BME280;56301;56.864;60.554;2023-04-25T09:26:59;98981.97;;;26.90;31.79
69187;BME280;56301;56.864;60.554;2023-04-25T09:29:28;98972.97;;;26.89;31.17
69187;BME280;56301;56.864;60.554;2023-04-25T09:31:51;98976.53;;;26.90;32.28
69187;BME280;56301;56.864;60.554;2023-04-25T09:34:13;98968.38;;;26.90;31.29
69187;BME280;56301;56.864;60.554;2023-04-25T09:36:40;98980.28;;;26.89;31.42
69187;BME280;56301;56.864;60.554;2023-04-25T09:39:20;98974.66;;;26.91;31.98
69187;BME280;56301;56.864;60.554;2023-04-25T09:41:53;98962.97;;;26.90;31.19
69187;BME280;56301;56.864;60.554;2023-04-25T09:44:19;98965.03;;;26.88;31.80
69187;BME280;56301;56.864;60.554;2023-04-25T09:46:46;98951.59;;;26.80;31.59
69187;BME280;56301;56.864;60.554;2023-04-25T09:49:16;98963.16;;;26.88;31.17
69187;BME280;56301;56.864;60.554;2023-04-25T09:51:59;98954.19;;;26.88;32.10
69187;BME280;56301;56.864;60.554;2023-04-25T09:54:27;98965.03;;;26.88;32.53
69187;BME280;56301;56.864;60.554;2023-04-25T09:57:22;98954.81;;;26.90;32.23
69187;BME280;56301;56.864;60.554;2023-04-25T10:02:07;98952.09;;;26.90;32.54
69187;BME280;56301;56.864;60.554;2023-04-25T10:04:34;98957.53;;;26.90;31.95
69187;BME280;56301;56.864;60.554;2023-04-25T10:07:05;98949.38;;;26.90;31.35
69187;BME280;56301;56.864;60.554;2023-04-25T10:09:30;98951.25;;;26.89;31.67
69187;BME280;56301;56.864;60.554;2023-04-25T10:11:53;98950.44;;;26.89;31.88
69187;BME280;56301;56.864;60.554;2023-04-25T10:14:17;98948.75;;;26.88;31.94
69187;BME280;56301;56.864;60.554;2023-04-25T10:16:40;98948.75;;;26.88;32.31
69187;BME280;56301;56.864;60.554;2023-04-25T10:19:03;98948.75;;;26.88;31.96
69187;BME280;56301;56.864;60.554;2023-04-25T10:21:27;98947.06;;;26.87;31.10
69187;BME280;56301;56.864;60.554;2023-04-25T10:23:50;98944.34;;;26.87;31.85
69187;BME280;56301;56.864;60.554;2023-04-25T10:26:13;98942.50;;;26.87;30.81
69187;BME280;56301;56.864;60.554;2023-04-25T10:28:58;98944.53;;;26.85;31.54
69187;BME280;56301;56.864;60.554;2023-04-25T10:31:20;98946.59;;;26.83;31.52
69187;BME280;56301;56.864;60.554;2023-04-25T10:33:42;98952.88;;;26.84;31.35
69187;BME280;56301;56.864;60.554;2023-04-25T10:36:15;98944.91;;;26.82;31.35
69187;BME280;56301;56.864;60.554;2023-04-25T10:38:39;98948.88;;;26.80;31.72
69187;BME280;56301;56.864;60.554;2023-04-25T10:41:02;98939.03;;;26.79;31.54
69187;BME280;56301;56.864;60.554;2023-04-25T10:43:33;98942.78;;;26.78;31.03
69187;BME280;56301;56.864;60.554;2023-04-25T10:45:56;98941.97;;;26.77;31.70
69187;BME280;56301;56.864;60.554;2023-04-25T10:48:30;98940.28;;;26.76;31.56
69187;BME280;56301;56.864;60.554;2023-04-25T10:51:15;98953.41;;;26.73;31.48
69187;BME280;56301;56.864;60.554;2023-04-25T10:53:37;98946.03;;;26.67;31.56
69187;BME280;56301;56.864;60.554;2023-04-25T10:56:00;98953.88;;;26.61;32.04
69187;BME280;56301;56.864;60.554;2023-04-25T10:58:22;98949.22;;;26.55;32.14
69187;BME280;56301;56.864;60.554;2023-04-25T11:00:45;98942.50;;;26.51;31.07
69187;BME280;56301;56.864;60.554;2023-04-25T11:03:08;98964.78;;;26.47;32.13
69187;BME280;56301;56.864;60.554;2023-04-25T11:05:32;98946.97;;;26.44;32.47
69187;BME280;56301;56.864;60.554;2023-04-25T11:07:55;98954.66;;;26.40;32.10
69187;BME280;56301;56.864;60.554;2023-04-25T11:10:18;98947.75;;;26.38;31.89
69187;BME280;56301;56.864;60.554;2023-04-25T11:12:41;98953.53;;;26.35;32.42
69187;BME280;56301;56.864;60.554;2023-04-25T11:15:04;98942.22;;;26.31;32.07
69187;BME280;56301;56.864;60.554;2023-04-25T11:17:27;98945.13;;;26.30;31.59
69187;BME280;56301;56.864;60.554;2023-04-25T11:19:50;98938.41;;;26.26;31.43
69187;BME280;56301;56.864;60.554;2023-04-25T11:22:13;98957.56;;;26.24;32.77
69187;BME280;56301;56.864;60.554;2023-04-25T11:24:35;98949.81;;;26.21;32.47
69187;BME280;56301;56.864;60.554;2023-04-25T11:26:58;98945.63;;;26.19;32.32
69187;BME280;56301;56.864;60.554;2023-04-25T11:29:28;98939.75;;;26.15;32.16
69187;BME280;56301;56.864;60.554;2023-04-25T11:31:51;98945.34;;;26.13;32.59
69187;BME280;56301;56.864;60.554;2023-04-25T11:34:16;98943.84;;;26.11;31.92
69187;BME280;56301;56.864;60.554;2023-04-25T11:36:39;98942.34;;;26.08;32.25
69187;BME280;56301;56.864;60.554;2023-04-25T11:39:02;98944.41;;;26.06;32.32
69187;BME280;56301;56.864;60.554;2023-04-25T11:41:25;98944.59;;;26.05;32.26
69187;BME280;56301;56.864;60.554;2023-04-25T11:43:48;98939.34;;;26.03;32.66
69187;BME280;56301;56.864;60.554;2023-04-25T11:46:10;98937.88;;;26.01;31.69
69187;BME280;56301;56.864;60.554;2023-04-25T11:48:39;98939.75;;;26.00;31.94
69187;BME280;56301;56.864;60.554;2023-04-25T11:51:02;98950.13;;;25.97;32.49
69187;BME280;56301;56.864;60.554;2023-04-25T11:53:25;98951.13;;;25.96;32.24
69187;BME280;56301;56.864;60.554;2023-04-25T11:55:47;98945.06;;;25.93;31.69
69187;BME280;56301;56.864;60.554;2023-04-25T11:58:10;98939.81;;;25.92;32.23
69187;BME280;56301;56.864;60.554;2023-04-25T12:00:32;98936.47;;;25.90;32.18
69187;BME280;56301;56.864;60.554;2023-04-25T12:02:55;98943.78;;;25.89;31.84
69187;BME280;56301;56.864;60.554;2023-04-25T12:05:18;98934.13;;;25.87;32.75
69187;BME280;56301;56.864;60.554;2023-04-25T12:07:41;98942.44;;;25.85;32.08
69187;BME280;56301;56.864;60.554;2023-04-25T12:10:04;98943.31;;;25.86;31.50
69187;BME280;56301;56.864;60.554;2023-04-25T12:12:27;98938.25;;;25.83;31.18
69187;BME280;56301;56.864;60.554;2023-04-25T12:14:50;98943.84;;;25.81;31.28
69187;BME280;56301;56.864;60.554;2023-04-25T12:17:12;98934.03;;;25.80;31.43
69187;BME280;56301;56.864;60.554;2023-04-25T12:19:36;98934.25;;;25.79;32.27
69187;BME280;56301;56.864;60.554;2023-04-25T12:21:59;98934.25;;;25.79;31.28
69187;BME280;56301;56.864;60.554;2023-04-25T12:24:23;98938.13;;;25.76;32.11
69187;BME280;56301;56.864;60.554;2023-04-25T12:26:47;98931.88;;;25.76;31.50
69187;BME280;56301;56.864;60.554;2023-04-25T12:29:16;98930.19;;;25.75;31.78
69187;BME280;56301;56.864;60.554;2023-04-25T12:31:39;98933.91;;;25.74;31.81
69187;BME280;56301;56.864;60.554;2023-04-25T12:34:02;98937.66;;;25.73;32.19
69187;BME280;56301;56.864;60.554;2023-04-25T12:36:24;98932.22;;;25.73;32.28
69187;BME280;56301;56.864;60.554;2023-04-25T12:38:47;98928.84;;;25.70;31.72
69187;BME280;56301;56.864;60.554;2023-04-25T12:41:09;98917.19;;;25.70;31.80
69187;BME280;56301;56.864;60.554;2023-04-25T12:43:32;98912.78;;;25.69;32.03
69187;BME280;56301;56.864;60.554;2023-04-25T12:45:55;98919.03;;;25.69;32.21
69187;BME280;56301;56.864;60.554;2023-04-25T12:48:18;98917.38;;;25.68;32.36
69187;BME280;56301;56.864;60.554;2023-04-25T12:50:40;98916.69;;;25.66;32.18